Time;durP1;ratioP1;P1;durP2;ratioP2;P2;SDS_P1;SDS_P2;PMS_P1;PMS_P2;Temp;Humidity;BMP_temperature;BMP_pressure;BME280_temperature;BME280_humidity;BME280_pressure;Samples;Min_cycle;Max_cycle;Signal;HPM_P1;HPM_P2
2022/01/24 00:01:52;;;;;;;2.60;2.40;;;16.00;58.00;17.00;102609.00;;;;5030083;28;20159;-44
2022/01/24 00:04:18;;;;;;;2.47;2.27;;;16.00;58.10;17.00;102612.00;;;;5028371;28;20171;-46
2022/01/24 00:06:44;;;;;;;2.57;2.20;;;16.00;58.00;17.00;102610.00;;;;5029869;28;20182;-48
2022/01/24 00:09:11;;;;;;;2.60;2.40;;;15.90;58.00;17.00;102608.00;;;;5029765;28;20179;-45
2022/01/24 00:27:22;;;;;;;2.50;2.30;;;15.80;58.00;16.80;102619.00;;;;5069777;28;20208;-46
2022/01/24 00:29:48;;;;;;;2.40;2.20;;;15.70;58.40;16.80;102608.00;;;;5059040;28;20171;-45
2022/01/24 00:32:13;;;;;;;2.47;2.27;;;15.70;57.90;16.80;102619.00;;;;5049697;28;20709;-45
2022/01/24 00:34:39;;;;;;;2.20;2.00;;;15.70;57.90;16.70;102610.00;;;;5049259;28;20171;-45
2022/01/24 00:37:05;;;;;;;2.30;2.10;;;15.70;57.90;16.70;102605.00;;;;5048163;28;20255;-45
2022/01/24 00:39:31;;;;;;;2.03;1.93;;;15.70;57.90;16.70;102613.00;;;;5049918;28;20189;-45
2022/01/24 00:47:09;;;;;;;2.30;2.10;;;15.60;57.90;16.70;102602.00;;;;5059779;28;20190;-44
2022/01/24 00:54:52;;;;;;;2.10;1.90;;;15.50;58.00;16.60;102597.00;;;;5047780;28;20668;-44
2022/01/24 00:57:18;;;;;;;2.10;1.90;;;15.50;58.00;16.50;102601.00;;;;5049234;28;20238;-46
2022/01/24 00:59:44;;;;;;;2.00;1.80;;;15.50;58.00;16.50;102593.00;;;;5049521;28;20174;-45
2022/01/24 01:02:10;;;;;;;1.90;1.80;;;15.50;58.00;16.50;102606.00;;;;5049264;28;20175;-46
2022/01/24 01:04:53;;;;;;;2.03;1.93;;;15.50;58.00;16.50;102578.00;;;;5048888;28;20517;-44
2022/01/24 01:18:15;;;;;;;1.93;1.83;;;15.40;57.90;16.40;102583.00;;;;5048048;28;20217;-45
2022/01/24 01:21:07;;;;;;;2.10;2.00;;;15.30;57.80;16.30;102593.00;;;;5047761;28;20209;-45
2022/01/24 01:23:33;;;;;;;2.10;2.00;;;15.30;57.80;16.30;102583.00;;;;5048548;28;20262;-46
2022/01/24 01:26:01;;;;;;;1.90;1.80;;;15.30;57.80;16.30;102573.00;;;;5069581;28;20174;-46
2022/01/24 01:28:28;;;;;;;2.00;1.90;;;15.20;57.90;16.30;102579.00;;;;5068889;28;20194;-44
2022/01/24 01:30:58;;;;;;;1.90;1.80;;;15.30;58.30;16.30;102572.00;;;;5049536;28;20179;-45
2022/01/24 01:33:39;;;;;;;2.10;1.90;;;15.30;58.00;16.20;102581.00;;;;5047892;28;20228;-46
2022/01/24 01:36:15;;;;;;;2.10;1.90;;;15.20;58.10;16.20;102589.00;;;;5047964;28;20544;-45
2022/01/24 01:39:39;;;;;;;1.93;1.83;;;15.20;58.00;16.20;102583.00;;;;5048063;28;20221;-46
2022/01/24 01:55:39;;;;;;;1.90;1.80;;;15.10;57.80;16.10;102573.00;;;;5046986;28;20166;-45
2022/01/24 01:58:13;;;;;;;1.90;1.80;;;15.10;57.70;16.10;102579.00;;;;5047634;28;20222;-45
2022/01/24 02:00:45;;;;;;;1.93;1.83;;;15.10;57.80;16.00;102579.00;;;;5047510;28;20169;-45
2022/01/24 02:03:11;;;;;;;1.80;1.70;;;15.10;57.90;16.00;102573.00;;;;5046100;28;20178;-47
2022/01/24 02:05:37;;;;;;;1.97;1.80;;;15.00;57.60;16.00;102576.00;;;;5047614;28;20635;-47
2022/01/24 02:08:03;;;;;;;1.63;1.53;;;15.10;57.80;16.00;102574.00;;;;5047965;28;20241;-44
2022/01/24 02:10:29;;;;;;;1.80;1.70;;;15.00;57.70;16.00;102582.00;;;;5047542;28;20752;-45
2022/01/24 02:12:56;;;;;;;1.80;1.70;;;15.00;57.50;16.00;102579.00;;;;5047730;28;20216;-45
2022/01/24 02:18:26;;;;;;;1.87;1.77;;;15.00;57.70;16.00;102578.00;;;;5015373;28;20234;-44
2022/01/24 02:23:42;;;;;;;1.70;1.60;;;14.90;57.60;15.90;102576.00;;;;5068228;28;20159;-46
2022/01/24 02:26:14;;;;;;;2.27;1.83;;;15.00;58.10;15.90;102573.00;;;;5048166;28;20158;-44
2022/01/24 02:29:31;;;;;;;1.60;1.50;;;14.90;57.50;15.90;102570.00;;;;5047775;28;20345;-45
2022/01/24 02:31:42;;;;;;;2.70;1.70;;;14.90;57.50;15.90;102560.00;;;;5038405;28;20197;-46
2022/01/24 02:34:35;;;;;;;1.67;1.57;;;14.90;57.70;16.00;102560.00;;;;5047800;28;20162;-45
2022/01/24 02:37:12;;;;;;;1.60;1.50;;;14.90;57.50;15.90;102543.00;;;;5047229;28;20300;-47
2022/01/24 02:39:46;;;;;;;1.70;1.60;;;14.90;57.50;15.90;102555.00;;;;5030904;28;20162;-45
2022/01/24 02:53:03;;;;;;;1.53;1.43;;;14.80;57.20;15.90;102543.00;;;;5046963;28;20158;-45
2022/01/24 02:55:28;;;;;;;1.60;1.50;;;14.80;57.40;16.00;102538.00;;;;5046563;28;20664;-47
2022/01/24 02:57:54;;;;;;;1.40;1.30;;;14.80;57.40;16.00;102537.00;;;;5046862;28;20205;-45
2022/01/24 03:00:20;;;;;;;1.60;1.50;;;14.80;57.40;16.00;102523.00;;;;5046767;28;20178;-47
2022/01/24 03:02:45;;;;;;;1.63;1.53;;;14.80;57.40;15.90;102532.00;;;;5046720;28;20683;-47
2022/01/24 03:05:11;;;;;;;1.50;1.40;;;14.80;57.40;15.90;102533.00;;;;5049249;28;20257;-45
2022/01/24 03:07:37;;;;;;;1.53;1.43;;;14.80;57.40;16.00;102524.00;;;;5050536;28;20190;-46
2022/01/24 03:10:12;;;;;;;1.40;1.30;;;14.80;57.40;15.90;102520.00;;;;5050716;28;20170;-45
2022/01/24 03:12:44;;;;;;;1.60;1.50;;;14.70;57.30;16.00;102513.00;;;;5051033;28;20253;-46
2022/01/24 03:15:10;;;;;;;1.50;1.40;;;14.70;57.30;15.90;102521.00;;;;5050848;28;20237;-45
2022/01/24 03:17:36;;;;;;;1.50;1.40;;;14.70;57.30;15.90;102521.00;;;;5051033;28;20213;-47
2022/01/24 03:20:01;;;;;;;1.50;1.40;;;14.70;57.40;15.90;102509.00;;;;5050528;28;20221;-45
2022/01/24 03:22:27;;;;;;;1.33;1.33;;;14.70;57.30;15.90;102506.00;;;;5050722;28;20178;-45
2022/01/24 03:24:53;;;;;;;1.20;1.20;;;14.70;57.30;15.90;102519.00;;;;5050753;28;20166;-45
2022/01/24 03:27:18;;;;;;;1.40;1.30;;;14.70;57.30;15.90;102515.00;;;;5050853;28;20205;-46
2022/01/24 03:29:44;;;;;;;1.30;1.30;;;14.70;57.30;15.90;102515.00;;;;5050523;28;20530;-45
2022/01/24 03:32:10;;;;;;;1.50;1.40;;;14.70;57.40;15.90;102511.00;;;;5032564;28;20227;-44
2022/01/24 03:34:35;;;;;;;1.43;1.33;;;14.70;57.30;15.80;102523.00;;;;5049473;28;20626;-44
2022/01/24 03:37:01;;;;;;;1.33;1.23;;;14.70;57.20;15.80;102518.00;;;;5049915;28;20708;-47
2022/01/24 03:39:27;;;;;;;1.20;1.20;;;14.70;57.30;15.80;102520.00;;;;5048996;28;20194;-46
2022/01/24 03:41:53;;;;;;;1.43;1.33;;;14.60;57.20;15.80;102522.00;;;;5050478;28;20175;-45
2022/01/24 03:44:19;;;;;;;1.20;1.10;;;14.60;57.20;15.80;102519.00;;;;5050153;28;20170;-45
2022/01/24 03:47:01;;;;;;;1.33;1.30;;;14.60;57.20;15.80;102525.00;;;;5050149;28;20182;-45
2022/01/24 03:49:47;;;;;;;1.50;1.40;;;14.60;57.50;15.80;102533.00;;;;5049630;28;20174;-44
2022/01/24 03:52:15;;;;;;;1.70;1.60;;;14.60;57.30;15.80;102536.00;;;;5050430;28;20197;-45
2022/01/24 03:54:43;;;;;;;1.40;1.30;;;14.60;57.50;15.70;102530.00;;;;5050434;28;20170;-48
2022/01/24 03:57:10;;;;;;;1.70;1.60;;;14.60;58.20;15.70;102519.00;;;;5051440;28;20210;-44
2022/01/24 03:59:36;;;;;;;1.60;1.50;;;14.60;58.60;15.70;102527.00;;;;5050434;28;20165;-45
2022/01/24 04:02:02;;;;;;;2.60;1.60;;;14.60;58.70;15.70;102521.00;;;;5049968;28;20166;-46
2022/01/24 04:04:27;;;;;;;2.73;1.40;;;14.60;58.30;15.70;102526.00;;;;5048959;28;20228;-45
2022/01/24 04:06:53;;;;;;;1.30;1.23;;;14.60;58.00;15.70;102525.00;;;;5049624;28;20517;-45
2022/01/24 04:09:19;;;;;;;2.97;1.50;;;14.50;58.00;15.70;102523.00;;;;5048460;28;20182;-46
2022/01/24 04:11:47;;;;;;;1.77;1.47;;;14.50;58.00;15.70;102516.00;;;;5048463;28;20198;-45
2022/01/24 04:22:25;;;;;;;2.30;1.27;;;14.50;58.20;15.60;102526.00;;;;5049552;28;20162;-44
2022/01/24 04:24:58;;;;;;;2.43;1.40;;;14.50;58.30;15.60;102522.00;;;;5049780;28;20249;-45
2022/01/24 04:27:24;;;;;;;1.40;1.30;;;14.50;58.10;15.60;102533.00;;;;5049354;28;20560;-45
2022/01/24 04:29:50;;;;;;;3.53;1.50;;;14.50;58.30;15.60;102533.00;;;;5048988;28;20170;-45
2022/01/24 04:32:16;;;;;;;3.87;1.50;;;14.50;57.90;15.60;102523.00;;;;5049265;28;20186;-45
2022/01/24 04:34:42;;;;;;;1.43;1.33;;;14.50;58.20;15.60;102524.00;;;;5049224;28;20166;-45
2022/01/24 04:37:08;;;;;;;1.93;1.40;;;14.50;58.00;15.50;102508.00;;;;5051898;28;20243;-46
2022/01/24 04:39:34;;;;;;;1.63;1.40;;;14.50;58.00;15.50;102524.00;;;;5047755;28;20170;-46
2022/01/24 04:42:07;;;;;;;2.53;1.27;;;14.40;57.80;15.50;102525.00;;;;5049249;28;20353;-45
2022/01/24 04:44:51;;;;;;;2.30;1.40;;;14.40;57.90;15.50;102523.00;;;;5048015;28;20229;-45
2022/01/24 04:47:49;;;;;;;3.93;1.20;;;14.40;58.00;15.50;102539.00;;;;5047654;28;20699;-45
2022/01/24 04:50:43;;;;;;;1.43;1.30;;;14.40;58.10;15.50;102532.00;;;;5058244;28;20147;-46
2022/01/24 04:53:46;;;;;;;1.53;1.43;;;14.30;58.20;15.50;102528.00;;;;5055838;28;20174;-46
2022/01/24 04:55:57;;;;;;;3.80;1.40;;;14.30;58.40;15.50;102533.00;;;;5048387;28;20182;-45
2022/01/24 04:58:23;;;;;;;2.10;1.20;;;14.40;58.40;15.50;102544.00;;;;5048450;28;20214;-46
2022/01/24 05:00:49;;;;;;;2.63;1.37;;;14.30;58.40;15.50;102542.00;;;;5048837;28;20645;-46
2022/01/24 05:03:14;;;;;;;1.60;1.33;;;14.40;58.30;15.50;102540.00;;;;5034502;28;20197;-46
2022/01/24 05:05:41;;;;;;;1.13;1.00;;;14.40;58.30;15.50;102550.00;;;;5028182;28;20179;-45
2022/01/24 05:08:08;;;;;;;1.30;1.20;;;14.30;58.40;15.50;102547.00;;;;5028520;28;20198;-46
2022/01/24 05:10:50;;;;;;;1.00;1.00;;;14.30;58.30;15.40;102546.00;;;;5028677;28;20171;-46
2022/01/24 05:23:59;;;;;;;1.87;1.20;;;14.30;58.40;15.40;102546.00;;;;5028260;28;20151;-45
2022/01/24 05:26:25;;;;;;;1.30;1.17;;;14.30;58.40;15.30;102548.00;;;;5028770;28;20151;-46
2022/01/24 05:28:51;;;;;;;3.40;1.60;;;14.30;58.40;15.30;102546.00;;;;5026806;28;20191;-46
2022/01/24 05:31:17;;;;;;;3.57;1.53;;;14.30;58.40;15.30;102542.00;;;;5028247;28;20175;-45
2022/01/24 05:33:43;;;;;;;3.27;1.50;;;14.20;58.30;15.40;102545.00;;;;5028438;28;20664;-45
2022/01/24 05:36:09;;;;;;;3.47;1.37;;;14.20;58.40;15.30;102545.00;;;;5028334;28;20174;-45
2022/01/24 05:38:34;;;;;;;4.43;1.60;;;14.20;58.30;15.30;102548.00;;;;5028440;28;20203;-45
2022/01/24 05:41:00;;;;;;;2.07;1.30;;;14.20;58.30;15.30;102555.00;;;;5028462;28;20772;-46
2022/01/24 05:43:26;;;;;;;2.80;1.30;;;14.20;58.30;15.30;102555.00;;;;5028258;28;20759;-46
2022/01/24 05:45:51;;;;;;;3.27;1.67;;;14.20;58.30;15.40;102541.00;;;;5032663;28;20167;-46
2022/01/24 05:48:17;;;;;;;4.10;1.47;;;14.10;58.40;15.10;102541.00;;;;5027702;28;20201;-45
2022/01/24 05:50:43;;;;;;;3.90;1.70;;;14.10;58.20;15.40;102532.00;;;;5028017;28;20171;-45
2022/01/24 05:53:09;;;;;;;3.17;1.50;;;14.10;58.20;15.40;102541.00;;;;5028038;28;20281;-46
2022/01/24 05:55:35;;;;;;;2.87;1.50;;;14.10;58.20;15.40;102527.00;;;;5028035;28;20217;-46
2022/01/24 05:58:00;;;;;;;2.83;1.60;;;14.20;58.30;15.40;102533.00;;;;5031035;28;20210;-46
2022/01/24 06:00:26;;;;;;;2.40;1.30;;;14.10;58.20;15.40;102532.00;;;;5027377;28;20799;-46
2022/01/24 06:02:52;;;;;;;2.10;1.40;;;14.10;58.20;15.40;102547.00;;;;5027440;28;20197;-45
2022/01/24 06:05:17;;;;;;;2.03;1.30;;;14.10;58.20;15.40;102539.00;;;;5027638;28;20159;-45
2022/01/24 06:07:43;;;;;;;5.20;1.50;;;14.10;58.20;15.30;102551.00;;;;5026255;28;20568;-44
2022/01/24 06:10:09;;;;;;;4.17;1.63;;;14.10;58.20;15.40;102539.00;;;;5028016;28;20155;-46
2022/01/24 06:12:35;;;;;;;3.73;1.60;;;14.10;58.20;15.30;102547.00;;;;5032424;28;20171;-45
2022/01/24 06:15:01;;;;;;;2.10;1.50;;;14.00;58.30;15.30;102544.00;;;;5046996;28;20701;-44
2022/01/24 06:17:33;;;;;;;1.80;1.53;;;14.10;58.20;15.30;102541.00;;;;5050865;28;20228;-45
2022/01/24 06:19:58;;;;;;;2.07;1.50;;;14.10;58.20;15.30;102560.00;;;;5061963;28;20218;-46
2022/01/24 06:22:24;;;;;;;3.50;1.50;;;14.00;58.20;15.30;102555.00;;;;5048778;28;20173;-47
2022/01/24 06:24:50;;;;;;;1.50;1.40;;;14.10;58.20;15.30;102559.00;;;;5047139;28;20540;-46
2022/01/24 06:27:15;;;;;;;2.27;1.40;;;14.00;58.30;15.30;102562.00;;;;5047150;28;20220;-45
2022/01/24 06:29:41;;;;;;;3.03;1.57;;;14.00;58.50;15.30;102560.00;;;;5046633;28;20210;-46
2022/01/24 06:32:07;;;;;;;2.00;1.33;;;14.00;58.30;15.30;102554.00;;;;5048493;28;20171;-45
2022/01/24 06:34:33;;;;;;;4.90;1.40;;;14.00;58.10;15.30;102559.00;;;;5047841;28;20181;-46
2022/01/24 06:36:59;;;;;;;3.10;1.40;;;14.00;58.10;15.30;102561.00;;;;5049942;28;20206;-46
2022/01/24 06:39:25;;;;;;;1.70;1.40;;;14.00;58.20;15.20;102559.00;;;;5063741;28;20218;-46
2022/01/24 06:42:05;;;;;;;1.73;1.20;;;14.00;58.10;15.20;102550.00;;;;5062012;28;20167;-45
2022/01/24 06:44:30;;;;;;;1.43;1.23;;;14.00;58.10;15.20;102560.00;;;;5047916;28;21030;-46
2022/01/24 06:46:56;;;;;;;1.40;1.30;;;14.00;58.10;15.20;102570.00;;;;5048207;28;20249;-45
2022/01/24 06:49:22;;;;;;;1.33;1.10;;;14.00;58.10;15.20;102571.00;;;;5049671;28;20150;-46
2022/01/24 06:51:48;;;;;;;1.33;1.23;;;14.00;58.20;15.20;102568.00;;;;5047113;28;20583;-46
2022/01/24 06:54:13;;;;;;;1.23;1.10;;;14.00;58.10;15.20;102564.00;;;;5046718;28;20251;-46
2022/01/24 06:56:39;;;;;;;2.03;1.37;;;13.90;58.00;15.20;102568.00;;;;5046628;28;20178;-46
2022/01/24 06:59:06;;;;;;;2.23;1.10;;;13.90;58.00;15.20;102557.00;;;;5046729;28;20805;-46
2022/01/24 07:01:32;;;;;;;1.40;1.30;;;13.90;58.10;15.20;102558.00;;;;5049867;28;20637;-46
2022/01/24 07:03:57;;;;;;;1.63;1.30;;;13.90;58.00;15.20;102554.00;;;;5070699;28;20177;-47
2022/01/24 07:06:23;;;;;;;1.60;1.50;;;13.90;58.00;15.20;102556.00;;;;5067026;28;20170;-45
2022/01/24 07:08:49;;;;;;;1.63;1.10;;;13.90;58.00;15.20;102555.00;;;;5047292;28;20207;-46
2022/01/24 07:11:15;;;;;;;1.30;1.20;;;13.90;58.00;15.10;102544.00;;;;5047209;28;20178;-47
2022/01/24 07:13:40;;;;;;;1.67;1.20;;;13.90;58.10;15.20;102550.00;;;;5047070;28;20162;-46
2022/01/24 07:16:07;;;;;;;1.30;1.20;;;13.90;58.00;15.20;102559.00;;;;5046635;28;20547;-45
2022/01/24 07:21:01;;;;;;;1.40;1.30;;;13.80;58.00;15.10;102554.00;;;;5045725;28;20198;-45
2022/01/24 07:23:27;;;;;;;1.07;1.00;;;13.80;58.00;15.10;102565.00;;;;5051571;28;20162;-44
2022/01/24 07:25:53;;;;;;;1.03;1.03;;;13.80;58.00;15.10;102568.00;;;;5062470;28;20430;-45
2022/01/24 07:28:19;;;;;;;1.10;1.00;;;13.80;58.10;15.10;102563.00;;;;5051385;28;20674;-46
2022/01/24 07:30:45;;;;;;;1.53;1.40;;;13.80;58.00;15.10;102563.00;;;;5046055;28;20170;-44
2022/01/24 07:33:11;;;;;;;1.00;1.00;;;13.80;58.00;15.10;102559.00;;;;5046761;28;20182;-46
2022/01/24 07:35:37;;;;;;;2.10;1.40;;;13.80;58.00;15.10;102565.00;;;;5067428;28;20190;-47
2022/01/24 07:38:05;;;;;;;1.47;1.30;;;13.70;58.10;15.10;102567.00;;;;5066382;28;20221;-46
2022/01/24 07:40:32;;;;;;;1.33;1.23;;;13.80;58.10;15.10;102559.00;;;;5047258;28;20259;-44
2022/01/24 07:45:25;;;;;;;1.10;1.10;;;13.70;57.90;15.00;102566.00;;;;5046683;28;20209;-45
2022/01/24 07:47:51;;;;;;;1.10;1.10;;;13.80;58.00;15.00;102569.00;;;;5046444;28;20186;-48
2022/01/24 07:50:19;;;;;;;1.23;1.10;;;13.80;58.00;15.00;102581.00;;;;5046757;28;20236;-45
2022/01/24 07:52:44;;;;;;;1.40;1.30;;;13.70;58.10;15.00;102581.00;;;;5049753;28;20232;-46
2022/01/24 07:55:10;;;;;;;0.93;0.93;;;13.70;57.90;15.00;102584.00;;;;5065968;28;20214;-46
2022/01/24 07:57:36;;;;;;;1.57;1.20;;;13.70;57.90;15.00;102584.00;;;;5076665;28;20225;-47
2022/01/24 08:00:03;;;;;;;1.40;1.30;;;13.70;58.00;15.00;102588.00;;;;5061702;28;20205;-45
2022/01/24 08:02:29;;;;;;;1.30;1.20;;;13.70;57.90;15.00;102582.00;;;;5051427;28;20177;-45
2022/01/24 08:04:55;;;;;;;1.10;1.10;;;13.70;57.90;15.00;102590.00;;;;5049895;28;20155;-44
2022/01/24 08:07:20;;;;;;;1.10;1.10;;;13.70;58.00;15.00;102588.00;;;;5049534;28;20657;-45
2022/01/24 08:09:46;;;;;;;1.57;1.20;;;13.60;57.90;15.00;102591.00;;;;5049937;28;20178;-45
2022/01/24 08:12:12;;;;;;;1.57;1.00;;;13.60;58.10;14.90;102586.00;;;;5050278;28;20209;-44
2022/01/24 08:14:38;;;;;;;1.30;1.20;;;13.60;58.00;14.80;102586.00;;;;5050342;28;20174;-44
2022/01/24 08:17:03;;;;;;;0.90;0.87;;;13.60;58.00;14.90;102589.00;;;;5049521;28;20194;-44
2022/01/24 08:19:29;;;;;;;1.30;1.20;;;13.60;57.90;14.90;102590.00;;;;5049830;28;20197;-46
2022/01/24 08:21:56;;;;;;;1.33;1.23;;;13.60;57.90;14.90;102585.00;;;;5049564;28;20174;-44
2022/01/24 08:24:23;;;;;;;1.57;1.20;;;13.60;58.10;14.90;102594.00;;;;5049308;28;20151;-46
2022/01/24 08:26:49;;;;;;;1.33;1.30;;;13.60;57.80;14.90;102592.00;;;;5048683;28;20185;-46
2022/01/24 08:29:14;;;;;;;1.10;1.00;;;13.60;57.80;14.90;102591.00;;;;5048845;28;20170;-45
2022/01/24 08:31:40;;;;;;;0.97;0.97;;;13.60;57.90;14.90;102598.00;;;;5049574;28;20691;-45
2022/01/24 08:34:06;;;;;;;1.07;1.03;;;13.60;58.00;14.90;102604.00;;;;5049789;28;20641;-46
2022/01/24 08:36:32;;;;;;;0.83;0.83;;;13.50;57.90;14.90;102607.00;;;;5049250;28;20166;-46
2022/01/24 08:39:05;;;;;;;1.20;1.20;;;13.50;57.80;14.80;102611.00;;;;5049345;28;20233;-46
2022/01/24 08:41:41;;;;;;;1.40;1.30;;;13.50;57.90;14.80;102617.00;;;;5049270;28;20171;-44
2022/01/24 08:46:46;;;;;;;1.30;1.20;;;13.50;58.00;14.80;102610.00;;;;5049766;28;20147;-45
2022/01/24 08:49:11;;;;;;;1.20;1.10;;;13.50;58.00;14.80;102624.00;;;;5048713;28;20167;-46
2022/01/24 08:51:37;;;;;;;1.33;1.23;;;13.50;57.80;14.80;102614.00;;;;5041216;28;20841;-46
2022/01/24 08:54:04;;;;;;;1.07;1.00;;;13.50;57.80;14.80;102616.00;;;;5044896;28;20696;-46
2022/01/24 08:56:30;;;;;;;1.03;1.00;;;13.50;57.90;14.80;102615.00;;;;5029279;28;20183;-45
2022/01/24 08:58:55;;;;;;;1.00;1.00;;;13.50;57.90;14.80;102606.00;;;;5031258;28;20203;-44
2022/01/24 09:01:21;;;;;;;0.90;0.90;;;13.50;57.90;14.80;102610.00;;;;5031444;28;20194;-45
2022/01/24 09:03:47;;;;;;;1.10;1.10;;;13.50;58.00;14.80;102613.00;;;;5028081;28;20171;-46
2022/01/24 09:06:16;;;;;;;1.10;1.00;;;13.40;57.80;14.70;102602.00;;;;5027244;28;20182;-45
2022/01/24 09:08:42;;;;;;;1.70;1.17;;;13.40;57.80;14.70;102604.00;;;;5021009;28;20196;-46
2022/01/24 09:11:08;;;;;;;1.90;1.00;;;13.50;57.80;14.70;102614.00;;;;5014449;28;20917;-47
2022/01/24 09:13:33;;;;;;;1.30;1.20;;;13.40;58.00;14.70;102605.00;;;;5025531;28;20184;-46
2022/01/24 09:16:00;;;;;;;1.33;1.10;;;13.40;58.20;14.70;102607.00;;;;5029378;28;20568;-46
2022/01/24 09:18:30;;;;;;;1.47;1.37;;;13.60;58.20;14.70;102603.00;;;;5027064;28;21107;-46
2022/01/24 09:20:56;;;;;;;1.20;1.00;;;13.80;58.00;14.80;102610.00;;;;5020961;28;20221;-45
2022/01/24 09:23:22;;;;;;;1.27;1.10;;;13.90;57.60;14.80;102609.00;;;;5032641;28;20199;-45
2022/01/24 09:25:50;;;;;;;1.40;1.30;;;14.10;57.50;14.90;102601.00;;;;5009047;28;20618;-45
2022/01/24 09:28:16;;;;;;;1.10;1.10;;;14.20;57.40;15.00;102595.00;;;;5008711;28;20203;-44
2022/01/24 09:30:42;;;;;;;2.93;1.20;;;14.20;57.20;15.00;102594.00;;;;5007304;28;20182;-45
2022/01/24 09:33:11;;;;;;;1.30;1.20;;;14.30;57.10;15.10;102604.00;;;;5008332;28;20630;-45
2022/01/24 09:35:38;;;;;;;2.13;1.17;;;14.30;57.00;15.10;102589.00;;;;5008615;28;20328;-45
2022/01/24 09:38:05;;;;;;;1.70;1.20;;;14.40;57.10;15.10;102591.00;;;;5024080;28;20258;-47
2022/01/24 09:40:32;;;;;;;2.33;1.20;;;14.50;57.20;15.20;102579.00;;;;5019086;28;20180;-46
2022/01/24 09:42:58;;;;;;;1.20;1.20;;;14.50;57.50;15.20;102586.00;;;;5020724;28;20553;-45
2022/01/24 09:45:24;;;;;;;1.47;1.37;;;14.50;57.60;15.30;102584.00;;;;5006666;28;20171;-44
2022/01/24 09:47:50;;;;;;;2.47;1.27;;;14.60;57.80;15.30;102579.00;;;;5008521;28;20206;-45
2022/01/24 09:50:18;;;;;;;1.17;1.13;;;14.60;57.50;15.30;102589.00;;;;5008094;28;20195;-45
2022/01/24 09:52:44;;;;;;;1.30;1.17;;;14.60;57.60;15.40;102592.00;;;;5007973;28;20186;-45
2022/01/24 09:55:10;;;;;;;2.90;1.27;;;14.60;57.70;15.40;102584.00;;;;5008658;28;20219;-45
2022/01/24 09:57:36;;;;;;;4.43;1.33;;;14.70;57.80;15.40;102512.00;;;;5013139;28;20235;-49
2022/01/24 10:00:07;;;;;;;4.07;1.40;;;14.70;57.70;15.50;102585.00;;;;5025371;28;20167;-46
2022/01/24 10:02:32;;;;;;;1.10;1.10;;;14.80;57.70;15.50;102597.00;;;;5032662;28;20215;-45
2022/01/24 10:05:21;;;;;;;1.43;1.33;;;14.80;57.70;15.50;102600.00;;;;5027073;28;20198;-45
2022/01/24 10:07:55;;;;;;;1.27;1.17;;;14.90;57.70;15.60;102594.00;;;;5027211;28;20191;-45
2022/01/24 10:10:29;;;;;;;1.80;1.53;;;14.90;57.80;15.60;102594.00;;;;5026614;28;20179;-45
2022/01/24 10:18:06;;;;;;;1.40;1.30;;;14.90;57.70;15.70;102592.00;;;;5026832;28;20209;-43
2022/01/24 10:20:39;;;;;;;1.17;1.17;;;15.00;57.80;15.70;102593.00;;;;5026566;28;20171;-45
2022/01/24 10:23:12;;;;;;;1.63;1.40;;;15.00;57.70;15.70;102593.00;;;;5026610;28;20541;-44
2022/01/24 10:26:04;;;;;;;1.53;1.40;;;15.00;57.70;15.80;102591.00;;;;5026796;28;20661;-45
2022/01/24 10:28:43;;;;;;;1.43;1.30;;;15.10;57.80;15.80;102587.00;;;;5027341;28;20244;-45
2022/01/24 10:31:18;;;;;;;1.43;1.27;;;15.10;57.80;15.90;102583.00;;;;5026814;28;20634;-45
2022/01/24 10:34:22;;;;;;;1.50;1.23;;;15.10;57.80;15.90;102588.00;;;;5026948;28;20232;-49
2022/01/24 10:36:51;;;;;;;1.63;1.30;;;15.20;57.80;15.90;102586.00;;;;5052856;28;20245;-48
2022/01/24 10:42:28;;;;;;;1.73;1.10;;;15.20;57.80;15.90;102595.00;;;;5028437;28;20151;-45
2022/01/24 10:44:57;;;;;;;5.07;1.40;;;15.20;58.20;16.00;102585.00;;;;5027174;28;20151;-47
2022/01/24 10:47:27;;;;;;;1.10;1.10;;;15.20;58.50;16.00;102582.00;;;;5025321;28;20195;-45
2022/01/24 10:49:52;;;;;;;2.43;1.30;;;15.30;58.60;16.00;102590.00;;;;5026979;28;20221;-45
2022/01/24 10:52:24;;;;;;;1.30;1.20;;;15.30;58.40;16.00;102582.00;;;;5027285;28;20178;-45
2022/01/24 10:54:55;;;;;;;2.37;1.50;;;15.40;58.60;16.10;102573.00;;;;5026903;28;20646;-44
2022/01/24 10:57:27;;;;;;;2.93;1.20;;;15.40;58.40;16.10;102570.00;;;;5026177;28;20206;-45
2022/01/24 11:00:09;;;;;;;1.30;1.20;;;15.40;58.30;16.10;102569.00;;;;5026701;28;20178;-48
2022/01/24 11:02:36;;;;;;;1.30;1.20;;;15.40;58.30;16.10;102564.00;;;;5007114;28;20180;-45
2022/01/24 11:05:14;;;;;;;2.00;1.40;;;15.50;58.50;16.20;102567.00;;;;5014929;28;20697;-47
2022/01/24 11:07:58;;;;;;;3.03;1.20;;;15.60;58.10;16.20;102565.00;;;;5017399;28;20640;-46
2022/01/24 11:10:29;;;;;;;1.20;1.20;;;15.70;58.00;16.30;102554.00;;;;5009460;28;20195;-46
2022/01/24 11:12:55;;;;;;;1.40;1.17;;;15.70;57.80;16.30;102558.00;;;;5019940;28;20256;-46
2022/01/24 11:15:22;;;;;;;1.37;1.27;;;15.80;57.80;16.40;102550.00;;;;5026542;28;20600;-45
2022/01/24 11:17:48;;;;;;;1.37;1.27;;;15.80;57.80;16.40;102557.00;;;;5026942;28;20206;-44
2022/01/24 11:20:17;;;;;;;1.40;1.30;;;15.90;57.80;16.50;102558.00;;;;5026946;28;20532;-46
2022/01/24 11:22:52;;;;;;;2.87;1.47;;;15.90;57.60;16.50;102558.00;;;;5036843;28;20194;-46
2022/01/24 11:25:18;;;;;;;3.00;1.43;;;15.90;57.80;16.50;102560.00;;;;5047644;28;20237;-47
2022/01/24 11:27:47;;;;;;;1.50;1.40;;;16.00;58.00;16.60;102556.00;;;;5044557;28;20191;-47
2022/01/24 11:30:29;;;;;;;1.70;1.27;;;16.10;58.10;16.60;102555.00;;;;5046556;28;20152;-46
2022/01/24 11:33:04;;;;;;;1.10;1.10;;;16.10;58.10;16.70;102550.00;;;;5037668;28;20167;-47
2022/01/24 11:35:51;;;;;;;1.33;1.23;;;16.10;58.10;16.70;102544.00;;;;5029021;28;20524;-49
2022/01/24 11:38:35;;;;;;;1.40;1.30;;;16.10;58.00;16.70;102556.00;;;;5030717;28;20234;-46
2022/01/24 11:41:06;;;;;;;1.77;1.30;;;16.10;58.00;16.70;102556.00;;;;5029858;28;20190;-45
2022/01/24 11:43:38;;;;;;;1.40;1.20;;;16.10;58.50;16.70;102557.00;;;;5029629;28;20592;-46
2022/01/24 11:46:25;;;;;;;1.40;1.30;;;16.10;58.50;16.70;102556.00;;;;5028212;28;20175;-46
2022/01/24 11:49:38;;;;;;;1.20;1.07;;;16.10;58.50;16.80;102546.00;;;;5029268;28;20190;-46
2022/01/24 11:52:16;;;;;;;1.77;1.03;;;16.20;58.20;16.80;102545.00;;;;5027147;28;20225;-46
2022/01/24 11:57:34;;;;;;;1.30;1.20;;;16.30;57.60;16.90;102540.00;;;;5029732;28;20215;-46
2022/01/24 12:00:04;;;;;;;2.03;1.23;;;16.30;57.50;16.90;102548.00;;;;5029310;28;20174;-47
2022/01/24 12:02:43;;;;;;;1.00;1.00;;;16.30;57.50;16.90;102529.00;;;;5029370;28;20182;-47
2022/01/24 12:05:45;;;;;;;1.87;1.03;;;16.40;57.40;17.00;102528.00;;;;5027992;28;20289;-46
2022/01/24 12:08:12;;;;;;;1.30;1.13;;;16.40;57.40;16.90;102535.00;;;;5027803;28;20203;-47
2022/01/24 12:10:45;;;;;;;1.00;1.00;;;16.40;57.30;17.00;102525.00;;;;5029158;28;20209;-46
2022/01/24 12:13:25;;;;;;;1.20;1.10;;;16.40;57.20;17.10;102524.00;;;;5015140;28;20175;-46
2022/01/24 12:15:56;;;;;;;0.90;0.90;;;16.40;57.10;17.10;102520.00;;;;5009556;28;20163;-47
2022/01/24 12:18:44;;;;;;;1.30;1.20;;;16.40;57.10;17.10;102526.00;;;;5009675;28;20212;-46
2022/01/24 12:21:21;;;;;;;1.20;1.10;;;16.50;57.10;17.20;102533.00;;;;5010020;28;20163;-46
2022/01/24 12:24:06;;;;;;;1.47;1.37;;;16.50;57.00;17.20;102531.00;;;;5008454;28;20182;-47
2022/01/24 12:26:34;;;;;;;1.40;1.30;;;16.50;57.30;17.20;102538.00;;;;5009393;28;20182;-46
2022/01/24 12:29:11;;;;;;;1.10;1.10;;;16.50;57.40;17.20;102523.00;;;;5012091;28;20196;-46
2022/01/24 12:31:47;;;;;;;1.43;1.33;;;16.50;57.40;17.20;102545.00;;;;5012410;28;20225;-45
2022/01/24 12:34:31;;;;;;;1.30;1.20;;;16.60;57.50;17.30;102530.00;;;;5008027;28;20179;-48
2022/01/24 12:37:04;;;;;;;4.77;1.50;;;16.60;57.50;17.30;102522.00;;;;5010337;28;20164;-46
2022/01/24 12:39:35;;;;;;;5.33;0.97;;;16.60;57.50;17.30;102526.00;;;;5010333;28;20164;-47
2022/01/24 12:42:10;;;;;;;4.77;1.60;;;16.60;57.30;17.30;102511.00;;;;5024206;28;20174;-47
2022/01/24 12:47:09;;;;;;;1.60;1.37;;;16.60;57.50;17.40;102515.00;;;;5029953;28;20198;-47